Time;durP1;ratioP1;P1;durP2;ratioP2;P2;SDS_P1;SDS_P2;PMS_P1;PMS_P2;Temp;Humidity;BMP_temperature;BMP_pressure;BME280_temperature;BME280_humidity;BME280_pressure;Samples;Min_cycle;Max_cycle;Signal;HPM_P1;HPM_P2
2021/07/21 00:01:39;;;;;;;13.68;11.57;;;;;;;16.19;66.31;99357.19;3580289;40;20056;-66
2021/07/21 00:04:07;;;;;;;14.63;11.73;;;;;;;16.23;66.13;99365.56;3580081;40;20411;-66
2021/07/21 00:06:54;;;;;;;15.38;10.65;;;;;;;16.21;66.51;99363.13;3580328;40;20049;-67
2021/07/21 00:09:22;;;;;;;16.20;11.75;;;;;;;16.27;66.69;99370.25;3579427;40;20063;-66
2021/07/21 00:14:39;;;;;;;16.20;11.55;;;;;;;16.35;66.62;99363.84;3579955;40;20416;-66
2021/07/21 00:17:18;;;;;;;14.18;10.93;;;;;;;16.46;65.95;99362.34;3579764;40;20053;-65
2021/07/21 00:22:31;;;;;;;12.52;9.75;;;;;;;16.49;65.74;99368.06;3579788;40;20056;-65
2021/07/21 00:24:59;;;;;;;16.33;10.57;;;;;;;16.58;65.76;99372.09;3579691;40;20049;-66
2021/07/21 00:27:27;;;;;;;15.80;12.07;;;;;;;16.55;65.54;99361.84;3579914;40;20082;-67
2021/07/21 00:29:55;;;;;;;14.02;10.65;;;;;;;16.43;65.61;99363.59;3579672;40;20052;-67
2021/07/21 00:32:24;;;;;;;15.27;11.23;;;;;;;16.35;66.22;99363.84;3579976;40;20406;-65
2021/07/21 00:34:52;;;;;;;14.90;10.63;;;;;;;16.30;66.19;99364.50;3578598;40;20338;-65
2021/07/21 00:37:21;;;;;;;15.88;11.88;;;;;;;16.23;66.63;99360.25;3578631;40;20052;-66
2021/07/21 00:39:49;;;;;;;14.95;12.07;;;;;;;16.28;66.79;99358.56;3578181;40;20055;-65
2021/07/21 00:42:17;;;;;;;15.52;11.65;;;;;;;16.08;66.53;99358.72;3579514;40;20052;-65
2021/07/21 00:44:45;;;;;;;21.10;12.13;;;;;;;16.01;66.91;99360.59;3579677;40;20130;-65
2021/07/21 00:47:13;;;;;;;15.35;11.70;;;;;;;15.92;66.94;99351.22;3578432;40;20052;-65
2021/07/21 00:49:42;;;;;;;16.25;11.75;;;;;;;15.79;67.74;99359.25;3578329;40;20049;-65
2021/07/21 00:52:10;;;;;;;16.27;11.80;;;;;;;15.71;67.61;99354.16;3578206;40;20284;-67
2021/07/21 00:54:40;;;;;;;14.48;10.43;;;;;;;15.75;68.06;99350.88;3578506;40;20115;-66
2021/07/21 00:57:08;;;;;;;14.82;11.35;;;;;;;15.74;68.21;99351.09;3578441;40;20052;-66
2021/07/21 00:59:36;;;;;;;19.48;12.23;;;;;;;15.74;67.91;99349.22;3579271;40;20053;-67
2021/07/21 01:02:05;;;;;;;15.88;11.63;;;;;;;15.69;68.51;99353.56;3578574;40;20064;-66
2021/07/21 01:04:35;;;;;;;17.20;12.10;;;;;;;15.78;67.78;99357.63;3579900;40;20053;-65
2021/07/21 01:07:06;;;;;;;15.30;11.18;;;;;;;15.79;67.38;99364.59;3580325;40;20049;-65
2021/07/21 01:09:37;;;;;;;16.92;11.18;;;;;;;15.68;67.70;99360.75;3581714;40;20309;-65
2021/07/21 01:12:17;;;;;;;15.90;11.73;;;;;;;15.59;67.80;99353.97;3582053;40;20118;-69
2021/07/21 01:14:56;;;;;;;15.07;11.95;;;;;;;15.57;67.89;99353.38;3582409;40;20053;-65
2021/07/21 01:17:32;;;;;;;15.10;11.77;;;;;;;15.48;68.14;99354.66;3580693;40;20061;-65
2021/07/21 01:20:21;;;;;;;18.52;12.70;;;;;;;15.43;68.35;99365.97;3581474;40;20069;-66
2021/07/21 01:23:04;;;;;;;15.05;12.63;;;;;;;15.36;68.19;99349.16;3581659;40;20455;-66
2021/07/21 01:25:41;;;;;;;17.63;12.70;;;;;;;15.30;68.46;99350.00;3578896;40;20402;-66
2021/07/21 01:28:17;;;;;;;19.15;13.13;;;;;;;15.28;68.71;99358.19;3578700;40;20049;-65
2021/07/21 01:30:52;;;;;;;17.02;11.70;;;;;;;15.31;68.83;99355.13;3578876;40;20060;-65
2021/07/21 01:33:22;;;;;;;15.60;10.60;;;;;;;15.34;68.55;99357.34;3578580;40;20381;-65
2021/07/21 01:35:55;;;;;;;15.63;11.48;;;;;;;15.32;68.21;99347.94;3582203;40;20134;-65
2021/07/21 01:38:30;;;;;;;15.40;11.90;;;;;;;15.32;68.14;99356.75;3581704;40;20037;-65
2021/07/21 01:41:05;;;;;;;14.98;11.10;;;;;;;15.33;68.12;99357.56;3581221;40;20033;-65
2021/07/21 01:43:35;;;;;;;16.95;12.25;;;;;;;15.35;67.88;99355.53;3581696;40;20143;-65
2021/07/21 01:46:05;;;;;;;14.98;11.75;;;;;;;15.33;67.82;99360.22;3582074;40;20057;-65
2021/07/21 01:48:37;;;;;;;17.88;11.75;;;;;;;15.29;68.19;99365.16;3581568;40;20025;-65
2021/07/21 01:51:08;;;;;;;16.90;11.20;;;;;;;15.24;67.76;99358.84;3582978;40;20049;-66
2021/07/21 01:53:39;;;;;;;16.08;12.80;;;;;;;15.19;68.02;99348.81;3579480;40;20049;-65
2021/07/21 01:56:15;;;;;;;17.27;11.07;;;;;;;15.06;68.04;99352.31;3579147;40;20036;-65
2021/07/21 01:58:48;;;;;;;14.93;11.25;;;;;;;15.03;68.41;99357.25;3578484;40;20084;-65
2021/07/21 02:01:27;;;;;;;14.10;11.43;;;;;;;14.97;68.54;99350.06;3578300;40;20041;-65
2021/07/21 02:03:58;;;;;;;13.82;10.98;;;;;;;14.81;68.96;99351.31;3578141;40;20084;-65
2021/07/21 02:06:34;;;;;;;15.52;11.20;;;;;;;14.85;68.51;99360.53;3578151;40;20060;-65
2021/07/21 02:09:06;;;;;;;16.88;11.68;;;;;;;14.81;68.44;99359.31;3578834;40;20127;-65
2021/07/21 02:11:36;;;;;;;17.95;12.07;;;;;;;14.73;68.79;99362.19;3577935;40;20044;-65
2021/07/21 02:14:07;;;;;;;15.60;11.02;;;;;;;14.64;69.49;99366.06;3577921;40;20062;-65
2021/07/21 02:17:05;;;;;;;20.50;11.98;;;;;;;14.47;69.79;99361.13;3570272;40;20053;-65
2021/07/21 02:19:40;;;;;;;13.95;11.02;;;;;;;14.44;70.39;99361.53;3578011;40;20055;-65
2021/07/21 02:22:22;;;;;;;18.42;11.73;;;;;;;14.42;70.52;99360.13;3578091;40;20390;-65
2021/07/21 02:25:17;;;;;;;17.25;11.27;;;;;;;14.56;70.42;99353.78;3578100;40;20049;-65
2021/07/21 02:27:46;;;;;;;16.02;10.25;;;;;;;14.68;70.33;99359.31;3577872;40;20049;-65
2021/07/21 02:30:16;;;;;;;15.18;11.32;;;;;;;14.77;69.62;99358.91;3578853;40;20041;-65
2021/07/21 02:32:53;;;;;;;15.13;11.50;;;;;;;14.85;69.09;99358.69;3578123;40;20049;-65
2021/07/21 02:35:21;;;;;;;14.93;11.27;;;;;;;14.83;69.58;99355.44;3578857;40;20037;-65
2021/07/21 02:37:51;;;;;;;16.80;11.02;;;;;;;14.80;69.90;99357.69;3577837;40;20085;-65
2021/07/21 02:40:20;;;;;;;18.98;11.07;;;;;;;14.82;69.48;99352.97;3577697;40;20056;-66
2021/07/21 02:43:00;;;;;;;18.52;10.88;;;;;;;14.88;69.17;99364.63;3577599;40;20072;-65
2021/07/21 02:45:29;;;;;;;15.10;11.35;;;;;;;14.89;68.99;99355.63;3578190;40;20133;-65
2021/07/21 02:47:58;;;;;;;15.45;12.23;;;;;;;14.78;69.38;99363.22;3577739;40;20048;-65
2021/07/21 02:50:26;;;;;;;12.80;11.25;;;;;;;14.69;69.34;99359.09;3578679;40;20029;-66
2021/07/21 02:52:58;;;;;;;15.98;12.32;;;;;;;14.66;69.24;99361.38;3579091;40;20057;-66
2021/07/21 02:55:42;;;;;;;15.63;10.80;;;;;;;14.38;70.34;99359.69;3578245;40;20142;-66
2021/07/21 03:01:48;;;;;;;15.90;12.57;;;;;;;14.48;70.14;99361.94;3577916;40;20386;-65
2021/07/21 03:04:25;;;;;;;16.65;12.07;;;;;;;14.44;70.50;99360.72;3577832;40;20045;-65
2021/07/21 03:07:04;;;;;;;18.35;11.48;;;;;;;14.45;70.65;99357.88;3577827;40;20033;-65
2021/07/21 03:09:38;;;;;;;18.85;13.00;;;;;;;14.53;70.34;99365.69;3577622;40;20040;-65
2021/07/21 03:12:09;;;;;;;15.73;11.70;;;;;;;14.48;70.14;99369.94;3577524;40;20313;-65
2021/07/21 03:15:02;;;;;;;15.23;11.85;;;;;;;14.35;69.95;99373.41;3575773;40;20085;-66
2021/07/21 03:17:36;;;;;;;17.63;13.45;;;;;;;14.21;70.47;99377.06;3578824;40;20036;-67
2021/07/21 03:20:08;;;;;;;17.27;12.73;;;;;;;14.17;70.39;99373.19;3577588;40;20084;-66
2021/07/21 03:22:48;;;;;;;18.00;12.40;;;;;;;14.13;70.68;99378.91;3577883;40;20325;-66
2021/07/21 03:25:23;;;;;;;17.40;11.68;;;;;;;14.08;70.77;99372.53;3577929;40;20102;-66
2021/07/21 03:27:53;;;;;;;15.27;10.80;;;;;;;14.07;70.84;99370.91;3579112;40;20055;-66
2021/07/21 03:30:25;;;;;;;17.13;12.18;;;;;;;14.05;71.45;99378.25;3579082;40;20107;-66
2021/07/21 03:33:02;;;;;;;14.50;11.55;;;;;;;14.15;71.30;99377.88;3578271;40;20052;-66
2021/07/21 03:35:35;;;;;;;16.27;10.75;;;;;;;14.16;71.10;99379.50;3579957;40;20052;-66
2021/07/21 03:38:07;;;;;;;13.68;10.40;;;;;;;14.15;70.83;99373.38;3579747;40;20053;-67
2021/07/21 03:40:41;;;;;;;16.15;11.63;;;;;;;14.16;71.12;99379.50;3579902;40;20052;-66
2021/07/21 03:43:22;;;;;;;17.77;12.88;;;;;;;14.13;70.56;99378.06;3583967;40;20048;-67
2021/07/21 03:46:03;;;;;;;14.98;11.07;;;;;;;14.10;70.66;99375.81;3585497;40;20055;-66
2021/07/21 03:48:33;;;;;;;16.63;11.85;;;;;;;14.07;70.99;99371.72;3585605;40;20084;-65
2021/07/21 03:51:24;;;;;;;17.55;12.80;;;;;;;14.01;70.48;99372.53;3586373;40;20056;-67
2021/07/21 03:54:17;;;;;;;19.02;12.63;;;;;;;13.98;70.90;99375.56;3585327;40;20069;-64
2021/07/21 03:56:58;;;;;;;15.60;11.98;;;;;;;14.01;70.75;99385.00;3584849;40;20056;-64
2021/07/21 03:59:32;;;;;;;17.13;11.77;;;;;;;14.02;70.64;99382.13;3580624;40;20045;-65
2021/07/21 04:02:01;;;;;;;13.60;10.68;;;;;;;14.06;70.67;99378.06;3578880;40;20040;-64
2021/07/21 04:04:36;;;;;;;15.07;12.02;;;;;;;14.09;69.89;99382.16;3579208;40;20338;-65
2021/07/21 04:07:06;;;;;;;13.38;11.52;;;;;;;14.04;69.54;99381.91;3579228;40;20056;-66
2021/07/21 04:09:41;;;;;;;14.50;11.30;;;;;;;13.96;70.23;99387.41;3578758;40;20406;-66
2021/07/21 04:12:14;;;;;;;17.73;13.82;;;;;;;14.02;70.27;99386.63;3579048;40;20052;-66
2021/07/21 04:14:51;;;;;;;16.85;12.63;;;;;;;13.99;69.85;99390.50;3579233;40;20069;-65
2021/07/21 04:17:40;;;;;;;18.25;12.57;;;;;;;13.94;69.98;99397.44;3577735;40;20041;-65
2021/07/21 04:20:16;;;;;;;16.20;13.27;;;;;;;13.99;69.82;99398.47;3578666;40;20072;-65
2021/07/21 04:22:47;;;;;;;;;;;;;;;14.05;70.17;99404.84;3580230;40;20574;-65
2021/07/21 04:25:18;;;;;;;18.50;11.75;;;;;;;14.13;70.05;99402.81;3579055;40;20023;-65
2021/07/21 04:27:50;;;;;;;16.65;11.43;;;;;;;14.16;69.70;99411.41;3578769;40;20045;-65
2021/07/21 04:30:23;;;;;;;15.10;11.13;;;;;;;14.18;69.47;99410.19;3578721;40;20033;-64
2021/07/21 04:32:55;;;;;;;14.13;10.60;;;;;;;14.21;69.29;99404.47;3578513;40;20375;-66
2021/07/21 04:35:27;;;;;;;17.67;11.82;;;;;;;14.27;69.82;99408.16;3578673;40;20029;-65
2021/07/21 04:38:00;;;;;;;15.27;12.38;;;;;;;14.34;69.46;99409.00;3579890;40;20134;-65
2021/07/21 04:40:44;;;;;;;14.48;11.38;;;;;;;14.37;69.58;99411.25;3578477;40;20045;-65
2021/07/21 04:43:38;;;;;;;13.80;11.43;;;;;;;14.45;69.49;99421.72;3579076;40;20049;-64
2021/07/21 04:46:13;;;;;;;16.95;12.52;;;;;;;14.46;69.00;99420.69;3579001;40;20029;-65
2021/07/21 04:48:43;;;;;;;17.08;11.90;;;;;;;14.48;69.25;99415.16;3578521;40;20051;-64
2021/07/21 04:51:23;;;;;;;16.00;11.43;;;;;;;14.63;69.53;99429.13;3578610;40;20531;-63
2021/07/21 04:54:04;;;;;;;16.40;11.85;;;;;;;14.79;68.67;99422.59;3578355;40;20080;-63
2021/07/21 04:56:37;;;;;;;20.02;12.63;;;;;;;14.81;68.33;99428.50;3579539;40;20040;-66
2021/07/21 04:59:06;;;;;;;16.90;11.45;;;;;;;14.82;68.88;99433.66;3579364;40;20084;-66
2021/07/21 05:01:35;;;;;;;15.07;12.25;;;;;;;14.97;68.18;99433.41;3578552;40;20387;-65
2021/07/21 05:04:04;;;;;;;12.73;10.68;;;;;;;14.93;67.65;99437.50;3578885;40;20093;-65
2021/07/21 05:06:59;;;;;;;;;;;;;;;14.85;68.31;99435.88;3578190;40;20049;-65
2021/07/21 05:09:33;;;;;;;17.48;11.30;;;;;;;14.84;68.24;99444.88;3578468;40;19933;-64
2021/07/21 05:12:06;;;;;;;14.48;10.65;;;;;;;15.03;68.25;99443.25;3578449;40;20044;-64
2021/07/21 05:14:40;;;;;;;14.63;11.00;;;;;;;15.27;67.58;99447.13;3578400;40;20056;-65
2021/07/21 05:17:26;;;;;;;14.02;11.25;;;;;;;15.45;67.04;99443.00;3579573;40;20123;-64
2021/07/21 05:19:55;;;;;;;17.65;11.75;;;;;;;15.48;66.76;99450.59;3578376;40;20045;-64
2021/07/21 05:22:25;;;;;;;18.77;11.45;;;;;;;15.54;66.70;99455.06;3578466;40;20081;-64
2021/07/21 05:24:54;;;;;;;14.32;10.32;;;;;;;15.57;66.61;99450.13;3578840;40;20049;-64
2021/07/21 05:27:25;;;;;;;14.32;10.88;;;;;;;15.68;66.07;99459.38;3578722;40;20049;-64
2021/07/21 05:29:53;;;;;;;19.95;11.30;;;;;;;15.71;66.08;99453.59;3578423;40;20057;-64
2021/07/21 05:32:30;;;;;;;14.23;10.55;;;;;;;15.71;65.69;99452.78;3578670;40;20041;-64
2021/07/21 05:35:07;;;;;;;17.33;12.88;;;;;;;15.81;65.42;99458.50;3578917;40;20049;-64
2021/07/21 05:38:06;;;;;;;15.02;10.85;;;;;;;15.77;65.92;99463.44;3570223;40;20056;-64
2021/07/21 05:40:33;;;;;;;15.05;10.43;;;;;;;15.81;66.07;99453.19;3580153;40;20401;-64
2021/07/21 05:43:09;;;;;;;18.42;13.02;;;;;;;15.92;65.97;99462.34;3578680;40;20061;-64
2021/07/21 05:45:47;;;;;;;15.77;12.15;;;;;;;16.09;65.49;99464.34;3579603;40;20045;-64
2021/07/21 05:48:17;;;;;;;16.75;11.27;;;;;;;16.19;65.44;99471.06;3578278;40;20072;-64
2021/07/21 05:51:03;;;;;;;14.43;10.55;;;;;;;16.22;65.07;99468.78;3580857;40;20051;-66
2021/07/21 05:53:33;;;;;;;25.77;11.35;;;;;;;16.27;64.69;99468.16;3580169;40;20056;-66
2021/07/21 05:56:05;;;;;;;13.63;10.00;;;;;;;16.31;64.62;99469.38;3579264;40;20406;-66
2021/07/21 05:58:42;;;;;;;19.35;11.45;;;;;;;16.33;64.66;99473.47;3578608;40;20033;-66
2021/07/21 06:01:10;;;;;;;17.48;11.23;;;;;;;16.38;64.32;99467.47;3578504;40;20055;-65
2021/07/21 06:03:38;;;;;;;16.13;10.98;;;;;;;16.39;64.43;99468.28;3578111;40;20049;-64
2021/07/21 06:06:25;;;;;;;15.80;10.50;;;;;;;16.50;63.92;99472.97;3579217;40;20076;-64
2021/07/21 06:09:20;;;;;;;15.55;10.98;;;;;;;16.69;63.12;99468.50;3579226;40;20055;-66
2021/07/21 06:11:59;;;;;;;14.27;10.50;;;;;;;16.65;63.68;99481.47;3578366;40;20394;-66
2021/07/21 06:14:29;;;;;;;17.48;11.20;;;;;;;16.80;62.71;99482.00;3579008;40;20049;-66
2021/07/21 06:17:00;;;;;;;17.80;10.77;;;;;;;16.96;62.00;99485.19;3578815;40;20581;-65
2021/07/21 06:19:33;;;;;;;15.88;11.05;;;;;;;16.99;61.55;99479.44;3577997;40;20496;-65
2021/07/21 06:22:03;;;;;;;16.17;9.98;;;;;;;17.03;61.30;99483.31;3578053;40;20130;-66
2021/07/21 06:24:41;;;;;;;14.18;10.48;;;;;;;17.11;61.13;99480.34;3578981;40;20049;-66
2021/07/21 06:27:21;;;;;;;16.80;10.43;;;;;;;17.22;60.82;99486.81;3578441;40;20041;-66
2021/07/21 06:29:52;;;;;;;15.95;10.85;;;;;;;17.19;59.85;99488.09;3578908;40;20138;-66
2021/07/21 06:32:20;;;;;;;14.13;9.25;;;;;;;16.97;60.53;99494.84;3579517;40;20126;-66
2021/07/21 06:34:49;;;;;;;14.57;10.90;;;;;;;17.11;60.78;99492.91;3578535;40;20356;-66
2021/07/21 06:37:17;;;;;;;16.08;9.68;;;;;;;17.24;60.78;99492.78;3579361;40;20059;-66
2021/07/21 06:39:50;;;;;;;15.55;10.25;;;;;;;17.36;60.61;99499.03;3578283;40;20582;-66
2021/07/21 06:42:18;;;;;;;18.73;9.43;;;;;;;17.51;60.28;99496.00;3578068;40;20129;-66
2021/07/21 06:44:51;;;;;;;17.20;10.27;;;;;;;17.62;59.42;99497.97;3578437;40;20122;-66
2021/07/21 06:47:26;;;;;;;15.93;10.13;;;;;;;17.66;59.72;99506.34;3578175;40;20052;-65
2021/07/21 06:50:26;;;;;;;10.82;9.23;;;;;;;17.77;59.98;99503.81;3570756;40;20060;-64
2021/07/21 06:52:55;;;;;;;15.25;8.73;;;;;;;17.83;59.50;99516.28;3579120;40;20134;-66
2021/07/21 06:55:44;;;;;;;15.85;9.13;;;;;;;18.02;59.54;99509.06;3578554;40;20515;-66
2021/07/21 06:58:13;;;;;;;17.27;9.43;;;;;;;18.25;58.74;99500.38;3577648;40;20041;-65
2021/07/21 07:00:54;;;;;;;15.32;9.50;;;;;;;18.25;57.96;99510.25;3577893;40;20484;-65
2021/07/21 07:03:42;;;;;;;17.20;9.63;;;;;;;18.28;58.01;99510.59;3578664;40;20103;-67
2021/07/21 07:06:29;;;;;;;20.65;9.88;;;;;;;18.37;57.96;99513.81;3579235;40;20070;-67
2021/07/21 07:09:15;;;;;;;19.20;9.02;;;;;;;18.42;57.60;99508.59;3578586;40;20052;-67
2021/07/21 07:12:04;;;;;;;15.25;9.43;;;;;;;18.46;57.07;99511.63;3578578;40;20366;-65
2021/07/21 07:14:31;;;;;;;13.32;8.80;;;;;;;18.51;57.48;99511.75;3577810;40;20048;-66
2021/07/21 07:16:59;;;;;;;11.48;7.03;;;;;;;18.59;57.25;99508.75;3578824;40;20087;-66
2021/07/21 07:19:27;;;;;;;11.38;8.18;;;;;;;18.65;56.97;99507.84;3578444;40;20053;-64
2021/07/21 07:21:55;;;;;;;12.27;8.02;;;;;;;18.65;56.38;99512.38;3578215;40;20081;-64
2021/07/21 07:24:23;;;;;;;11.60;7.47;;;;;;;18.72;56.41;99508.59;3578316;40;20052;-64
2021/07/21 07:26:51;;;;;;;12.35;8.38;;;;;;;18.75;56.16;99496.63;3578674;40;20060;-64
2021/07/21 07:29:20;;;;;;;10.15;7.22;;;;;;;18.76;56.40;99496.38;3577247;40;20085;-64
2021/07/21 07:31:47;;;;;;;13.25;7.75;;;;;;;18.91;55.57;99495.16;3578392;40;20052;-64
2021/07/21 07:34:15;;;;;;;11.27;6.95;;;;;;;18.92;55.62;99486.88;3578304;40;20045;-65
2021/07/21 07:36:43;;;;;;;10.05;6.82;;;;;;;19.05;56.20;99492.00;3578208;40;20150;-65
2021/07/21 07:39:11;;;;;;;15.30;7.90;;;;;;;19.29;55.53;99492.84;3578300;40;20402;-65
2021/07/21 07:41:40;;;;;;;9.27;7.50;;;;;;;19.36;55.56;99492.75;3577800;40;20048;-65
2021/07/21 07:44:09;;;;;;;9.10;6.97;;;;;;;19.32;54.62;99474.69;3578459;40;20040;-65
2021/07/21 07:46:38;;;;;;;11.90;6.88;;;;;;;19.43;54.77;99487.25;3577798;40;20076;-65
2021/07/21 07:49:07;;;;;;;11.93;7.00;;;;;;;19.63;54.92;99487.75;3578625;40;20053;-65
2021/07/21 07:51:35;;;;;;;9.65;6.47;;;;;;;19.78;54.04;99482.72;3578386;40;20057;-65
2021/07/21 07:54:05;;;;;;;11.68;6.72;;;;;;;19.91;53.65;99488.88;3577661;40;20056;-65
2021/07/21 07:56:34;;;;;;;8.85;7.10;;;;;;;20.03;53.01;99481.59;3578542;40;20393;-65
2021/07/21 07:59:02;;;;;;;7.25;6.35;;;;;;;19.99;52.56;99480.44;3578761;40;20056;-65
2021/07/21 08:01:30;;;;;;;9.85;6.30;;;;;;;20.06;52.84;99474.97;3578703;40;20041;-65
2021/07/21 08:04:00;;;;;;;10.23;6.75;;;;;;;20.25;52.09;99476.44;3577947;40;20127;-65
2021/07/21 08:06:31;;;;;;;9.37;6.57;;;;;;;20.34;51.46;99471.47;3578647;40;20045;-67
2021/07/21 08:08:59;;;;;;;11.23;7.90;;;;;;;20.34;51.78;99477.66;3578848;40;20056;-66
2021/07/21 08:11:29;;;;;;;13.20;7.05;;;;;;;20.42;51.66;99476.47;3577500;40;20119;-66
2021/07/21 08:13:56;;;;;;;9.23;6.68;;;;;;;20.52;50.81;99484.72;3577551;40;20088;-67
2021/07/21 08:16:24;;;;;;;10.05;6.72;;;;;;;20.44;50.76;99480.53;3577464;40;20068;-67
2021/07/21 08:18:52;;;;;;;12.90;7.45;;;;;;;20.45;50.87;99487.53;3578083;40;20049;-66
2021/07/21 08:21:22;;;;;;;9.10;6.18;;;;;;;20.42;50.56;99481.84;3578957;40;20056;-66
2021/07/21 08:23:49;;;;;;;9.50;7.03;;;;;;;20.52;50.36;99485.53;3578565;40;20057;-66
2021/07/21 08:26:17;;;;;;;8.15;5.93;;;;;;;20.55;49.84;99489.63;3579598;40;20044;-67
2021/07/21 08:28:45;;;;;;;11.75;6.65;;;;;;;20.62;50.02;99482.25;3578729;40;20067;-65
2021/07/21 08:31:12;;;;;;;8.52;6.95;;;;;;;20.70;49.55;99473.78;3578956;40;20049;-66
2021/07/21 08:33:41;;;;;;;7.18;6.40;;;;;;;20.86;49.17;99472.19;3579241;40;20134;-67
2021/07/21 08:36:09;;;;;;;9.70;5.90;;;;;;;21.07;48.66;99470.63;3579052;40;20466;-66
2021/07/21 08:38:38;;;;;;;8.07;6.60;;;;;;;21.19;47.81;99476.72;3578618;40;20055;-68
2021/07/21 08:41:06;;;;;;;7.55;5.95;;;;;;;21.16;47.83;99469.16;3579040;40;20052;-67
2021/07/21 08:43:37;;;;;;;13.27;7.28;;;;;;;21.19;47.71;99474.03;3579722;40;20049;-67
2021/07/21 08:46:05;;;;;;;8.95;6.53;;;;;;;21.24;47.54;99473.31;3580001;40;20134;-65
2021/07/21 08:48:33;;;;;;;8.75;6.50;;;;;;;21.19;47.28;99471.34;3579340;40;20057;-66
2021/07/21 08:51:01;;;;;;;8.40;6.00;;;;;;;21.16;47.96;99474.53;3579750;40;20074;-66
2021/07/21 08:53:30;;;;;;;8.88;7.20;;;;;;;21.18;47.95;99475.09;3578395;40;20053;-68
2021/07/21 08:55:59;;;;;;;10.02;7.20;;;;;;;21.30;47.89;99468.81;3579281;40;20053;-65
2021/07/21 08:58:27;;;;;;;8.77;6.70;;;;;;;21.46;48.31;99471.50;3578178;40;20055;-66
2021/07/21 09:00:56;;;;;;;9.05;6.65;;;;;;;21.71;47.03;99467.53;3578542;40;20053;-66
2021/07/21 09:03:26;;;;;;;9.18;6.35;;;;;;;21.82;47.39;99463.09;3578214;40;20061;-66
2021/07/21 09:05:55;;;;;;;12.50;7.47;;;;;;;21.97;46.77;99457.91;3578246;40;20041;-67
2021/07/21 09:08:22;;;;;;;9.35;6.97;;;;;;;22.02;45.82;99466.84;3578986;40;20069;-67
2021/07/21 09:10:51;;;;;;;8.02;6.25;;;;;;;22.04;46.46;99460.41;3578553;40;20021;-66
2021/07/21 09:13:20;;;;;;;8.10;7.28;;;;;;;22.11;45.56;99466.41;3579312;40;20439;-65
2021/07/21 09:15:49;;;;;;;13.10;6.82;;;;;;;22.13;45.08;99469.72;3579302;40;20069;-68
2021/07/21 09:18:18;;;;;;;7.72;6.93;;;;;;;22.08;45.31;99469.59;3578154;40;20400;-67
2021/07/21 09:20:49;;;;;;;7.53;6.53;;;;;;;22.16;45.17;99461.09;3579052;40;20052;-65
2021/07/21 09:23:19;;;;;;;8.55;6.45;;;;;;;22.26;45.09;99466.63;3578473;40;20045;-65
2021/07/21 09:25:49;;;;;;;7.28;6.47;;;;;;;22.05;44.80;99465.56;3578313;40;20391;-66
2021/07/21 09:28:20;;;;;;;8.32;6.30;;;;;;;21.84;45.44;99469.03;3579074;40;20061;-66
2021/07/21 09:30:49;;;;;;;9.63;7.05;;;;;;;22.08;45.49;99461.53;3578590;40;20414;-65
2021/07/21 09:33:21;;;;;;;13.23;6.82;;;;;;;22.35;44.47;99470.47;3578894;40;20421;-67
2021/07/21 09:35:52;;;;;;;8.35;6.68;;;;;;;22.39;44.28;99470.78;3579237;40;20087;-66
2021/07/21 09:38:23;;;;;;;9.18;6.65;;;;;;;22.43;43.91;99472.72;3578929;40;20614;-67
2021/07/21 09:40:53;;;;;;;11.23;7.40;;;;;;;22.49;43.70;99465.50;3579262;40;20041;-67
2021/07/21 09:43:22;;;;;;;8.88;7.10;;;;;;;22.50;42.36;99473.34;3579147;40;20413;-67
2021/07/21 09:45:52;;;;;;;7.72;6.38;;;;;;;22.56;42.88;99466.09;3578935;40;20044;-67
2021/07/21 09:48:35;;;;;;;9.65;6.78;;;;;;;22.74;42.47;99463.06;3577991;40;20076;-67
2021/07/21 09:51:03;;;;;;;8.57;6.72;;;;;;;22.79;42.03;99466.88;3579087;40;20399;-68
2021/07/21 09:53:40;;;;;;;10.25;7.20;;;;;;;22.62;42.12;99456.22;3579100;40;20466;-66
2021/07/21 09:56:09;;;;;;;8.95;6.88;;;;;;;22.49;42.40;99463.63;3578814;40;20041;-66
2021/07/21 09:58:37;;;;;;;9.07;7.30;;;;;;;22.72;42.32;99464.38;3578771;40;20387;-67
2021/07/21 10:01:06;;;;;;;8.25;6.20;;;;;;;22.83;41.25;99465.28;3578818;40;20056;-65
2021/07/21 10:03:38;;;;;;;9.57;7.15;;;;;;;22.81;41.94;99462.81;3578802;40;20055;-66
2021/07/21 10:06:08;;;;;;;13.15;7.35;;;;;;;22.88;41.63;99468.81;3578894;40;20349;-67
2021/07/21 10:08:42;;;;;;;9.57;6.80;;;;;;;22.85;41.30;99471.22;3577533;40;20059;-66
2021/07/21 10:11:25;;;;;;;8.82;6.90;;;;;;;22.80;41.78;99472.00;3578151;40;20051;-67
2021/07/21 10:13:55;;;;;;;10.23;7.45;;;;;;;22.80;41.56;99468.50;3578775;40;20072;-65
2021/07/21 10:16:36;;;;;;;10.82;7.60;;;;;;;22.87;41.92;99467.22;3577824;40;20049;-65
2021/07/21 10:19:07;;;;;;;8.77;6.88;;;;;;;23.07;41.52;99461.19;3577425;40;20041;-65
2021/07/21 10:21:35;;;;;;;8.90;7.60;;;;;;;23.29;41.23;99463.78;3579031;40;20048;-66
2021/07/21 10:24:05;;;;;;;11.88;7.53;;;;;;;23.40;41.40;99461.97;3578325;40;20048;-65
2021/07/21 10:26:33;;;;;;;8.68;6.82;;;;;;;23.49;40.70;99463.91;3578653;40;20044;-65
2021/07/21 10:29:01;;;;;;;11.93;6.97;;;;;;;23.47;40.83;99466.06;3577741;40;20051;-65
2021/07/21 10:31:30;;;;;;;9.52;7.22;;;;;;;23.42;40.57;99470.59;3578843;40;20052;-66
2021/07/21 10:34:00;;;;;;;8.27;6.47;;;;;;;23.34;40.58;99465.69;3578690;40;20049;-66
2021/07/21 10:36:30;;;;;;;6.90;5.95;;;;;;;23.19;41.38;99461.81;3578713;40;20322;-66
2021/07/21 10:38:59;;;;;;;9.93;6.90;;;;;;;23.44;41.50;99465.75;3578431;40;20045;-65
2021/07/21 10:41:29;;;;;;;8.48;7.13;;;;;;;23.68;40.63;99461.59;3578601;40;20073;-65
2021/07/21 10:43:59;;;;;;;8.32;5.80;;;;;;;23.87;40.07;99458.44;3578323;40;20048;-66
2021/07/21 10:46:38;;;;;;;14.20;8.02;;;;;;;23.94;39.50;99456.31;3577556;40;20138;-66
2021/07/21 10:49:23;;;;;;;9.35;7.22;;;;;;;23.87;39.83;99450.34;3578785;40;20053;-66
2021/07/21 10:55:17;;;;;;;9.07;6.53;;;;;;;23.60;40.05;99459.38;3578921;40;20088;-66
2021/07/21 11:00:32;;;;;;;7.30;6.43;;;;;;;23.61;40.32;99447.50;3578578;40;20084;-65
2021/07/21 11:03:18;;;;;;;9.10;6.07;;;;;;;23.61;40.05;99452.09;3578377;40;20052;-65
2021/07/21 11:05:56;;;;;;;7.88;5.75;;;;;;;23.50;40.48;99451.22;3577819;40;20053;-65
2021/07/21 11:08:27;;;;;;;7.05;6.40;;;;;;;23.52;40.59;99456.38;3578542;40;20053;-64
2021/07/21 11:10:57;;;;;;;6.05;5.13;;;;;;;23.65;40.32;99440.53;3577368;40;20056;-65
2021/07/21 11:13:41;;;;;;;9.25;6.65;;;;;;;23.76;39.86;99441.41;3578425;40;20113;-65
2021/07/21 11:16:39;;;;;;;7.10;6.40;;;;;;;23.84;39.33;99443.59;3578472;40;20045;-65
2021/07/21 11:19:25;;;;;;;9.25;6.93;;;;;;;23.88;39.37;99438.47;3578193;40;20373;-66
2021/07/21 11:21:59;;;;;;;6.88;6.18;;;;;;;23.85;39.24;99442.50;3578513;40;20382;-66
2021/07/21 11:24:28;;;;;;;7.10;6.03;;;;;;;23.79;39.55;99434.66;3578333;40;20072;-65
2021/07/21 11:26:57;;;;;;;8.70;6.18;;;;;;;23.85;39.85;99434.41;3577741;40;20126;-64
2021/07/21 11:29:45;;;;;;;8.82;6.25;;;;;;;24.00;39.61;99427.44;3578073;40;20088;-65
2021/07/21 11:32:30;;;;;;;9.30;6.10;;;;;;;24.06;39.09;99421.78;3577246;40;20068;-64
2021/07/21 11:34:59;;;;;;;8.25;6.50;;;;;;;24.04;39.52;99423.13;3577442;40;20044;-64
2021/07/21 11:37:32;;;;;;;11.18;6.15;;;;;;;24.07;38.47;99425.28;3578574;40;20052;-65
2021/07/21 11:40:14;;;;;;;9.10;5.78;;;;;;;24.04;38.44;99423.13;3578276;40;20067;-65
2021/07/21 11:42:42;;;;;;;7.25;5.72;;;;;;;23.99;38.85;99421.22;3577537;40;20073;-65
2021/07/21 11:45:18;;;;;;;8.40;6.50;;;;;;;24.04;37.93;99418.53;3578770;40;20429;-65
2021/07/21 11:47:49;;;;;;;7.38;5.38;;;;;;;24.17;38.39;99412.63;3577517;40;20060;-66
2021/07/21 11:50:19;;;;;;;6.28;5.22;;;;;;;24.29;37.92;99412.41;3578404;40;20057;-67
2021/07/21 11:52:52;;;;;;;9.85;6.30;;;;;;;24.39;37.38;99412.44;3577303;40;20080;-66
2021/07/21 11:55:22;;;;;;;7.60;5.88;;;;;;;24.48;37.14;99412.69;3578414;40;20085;-66
2021/07/21 11:57:52;;;;;;;7.22;4.90;;;;;;;24.38;37.15;99412.72;3580283;40;20044;-65
2021/07/21 12:00:22;;;;;;;8.60;5.78;;;;;;;24.32;37.24;99411.84;3579414;40;20054;-65
2021/07/21 12:02:59;;;;;;;7.30;5.88;;;;;;;24.28;36.76;99410.75;3580641;40;20049;-66
2021/07/21 12:05:27;;;;;;;8.98;5.30;;;;;;;24.09;36.83;99410.47;3580913;40;20402;-65
2021/07/21 12:08:08;;;;;;;9.00;5.65;;;;;;;24.11;37.04;99405.59;3580975;40;20088;-66